sensor_id;sensor_type;location;lat;lon;timestamp;pressure;altitude;pressure_sealevel;temperature
79053;BMP280;68451;49.510;6.026;2023-04-25T00:02:01;97486.31;;;5.36
79053;BMP280;68451;49.510;6.026;2023-04-25T00:04:27;97455.25;;;5.10
79053;BMP280;68451;49.510;6.026;2023-04-25T00:06:54;97479.75;;;5.33
79053;BMP280;68451;49.510;6.026;2023-04-25T00:09:19;97407.09;;;4.89
79053;BMP280;68451;49.510;6.026;2023-04-25T00:11:45;97515.19;;;5.59
79053;BMP280;68451;49.510;6.026;2023-04-25T00:14:10;97312.63;;;4.27
79053;BMP280;68451;49.510;6.026;2023-04-25T00:16:36;97514.19;;;5.54
79053;BMP280;68451;49.510;6.026;2023-04-25T00:19:02;97503.25;;;5.52
79053;BMP280;68451;49.510;6.026;2023-04-25T00:21:28;97249.78;;;3.87
79053;BMP280;68451;49.510;6.026;2023-04-25T00:23:55;97500.44;;;5.60
79053;BMP280;68451;49.510;6.026;2023-04-25T00:26:20;97459.25;;;5.38
79053;BMP280;68451;49.510;6.026;2023-04-25T00:28:47;97455.06;;;5.37
79053;BMP280;68451;49.510;6.026;2023-04-25T00:31:13;97483.31;;;5.65
79053;BMP280;68451;49.510;6.026;2023-04-25T00:33:39;97534.69;;;5.95
79053;BMP280;68451;49.510;6.026;2023-04-25T00:36:05;97519.94;;;5.95
79053;BMP280;68451;49.510;6.026;2023-04-25T00:38:31;97470.34;;;5.59
79053;BMP280;68451;49.510;6.026;2023-04-25T00:40:56;97216.63;;;4.04
79053;BMP280;68451;49.510;6.026;2023-04-25T00:43:26;97506.59;;;5.92
79053;BMP280;68451;49.510;6.026;2023-04-25T00:45:52;97411.06;;;5.31
79053;BMP280;68451;49.510;6.026;2023-04-25T00:48:18;97385.78;;;5.20
79053;BMP280;68451;49.510;6.026;2023-04-25T00:50:51;97510.56;;;6.01
79053;BMP280;68451;49.510;6.026;2023-04-25T00:53:17;97459.38;;;5.70
79053;BMP280;68451;49.510;6.026;2023-04-25T00:55:43;97522.09;;;6.11
79053;BMP280;68451;49.510;6.026;2023-04-25T00:58:08;97487.44;;;5.86
79053;BMP280;68451;49.510;6.026;2023-04-25T01:00:34;97222.00;;;4.22
79053;BMP280;68451;49.510;6.026;2023-04-25T01:03:00;97363.88;;;5.22
79053;BMP280;68451;49.510;6.026;2023-04-25T01:05:27;97409.63;;;5.55
79053;BMP280;68451;49.510;6.026;2023-04-25T01:07:53;97495.78;;;6.08
79053;BMP280;68451;49.510;6.026;2023-04-25T01:10:19;97315.19;;;4.93
79053;BMP280;68451;49.510;6.026;2023-04-25T01:12:44;97516.88;;;6.24
79053;BMP280;68451;49.510;6.026;2023-04-25T01:15:10;97523.63;;;6.25
79053;BMP280;68451;49.510;6.026;2023-04-25T01:17:35;97503.53;;;6.14
79053;BMP280;68451;49.510;6.026;2023-04-25T01:20:03;97487.19;;;6.07
79053;BMP280;68451;49.510;6.026;2023-04-25T01:22:30;97371.84;;;5.27
79053;BMP280;68451;49.510;6.026;2023-04-25T01:24:55;97488.03;;;6.01
79053;BMP280;68451;49.510;6.026;2023-04-25T01:27:21;97340.81;;;5.14
79053;BMP280;68451;49.510;6.026;2023-04-25T01:29:48;97503.91;;;6.24
79053;BMP280;68451;49.510;6.026;2023-04-25T01:32:14;97528.19;;;6.37
79053;BMP280;68451;49.510;6.026;2023-04-25T01:34:40;97406.22;;;5.61
79053;BMP280;68451;49.510;6.026;2023-04-25T01:37:05;97473.06;;;6.03
79053;BMP280;68451;49.510;6.026;2023-04-25T01:39:31;97472.88;;;6.11
79053;BMP280;68451;49.510;6.026;2023-04-25T01:41:58;97488.97;;;6.20
79053;BMP280;68451;49.510;6.026;2023-04-25T01:44:24;97501.47;;;6.36
79053;BMP280;68451;49.510;6.026;2023-04-25T01:46:50;97410.56;;;5.87
79053;BMP280;68451;49.510;6.026;2023-04-25T01:49:16;97463.22;;;6.25
79053;BMP280;68451;49.510;6.026;2023-04-25T01:51:41;97486.09;;;6.41
79053;BMP280;68451;49.510;6.026;2023-04-25T01:54:08;97490.25;;;6.49
79053;BMP280;68451;49.510;6.026;2023-04-25T01:56:37;97302.19;;;5.26
79053;BMP280;68451;49.510;6.026;2023-04-25T01:59:03;97398.38;;;5.80
79053;BMP280;68451;49.510;6.026;2023-04-25T02:01:29;97445.41;;;5.84
79053;BMP280;68451;49.510;6.026;2023-04-25T02:03:55;97430.91;;;5.63
79053;BMP280;68451;49.510;6.026;2023-04-25T02:06:20;97458.56;;;5.76
79053;BMP280;68451;49.510;6.026;2023-04-25T02:08:46;97470.31;;;5.92
79053;BMP280;68451;49.510;6.026;2023-04-25T02:11:11;97422.16;;;5.64
79053;BMP280;68451;49.510;6.026;2023-04-25T02:13:37;97455.38;;;5.94
79053;BMP280;68451;49.510;6.026;2023-04-25T02:16:02;97495.34;;;6.24
79053;BMP280;68451;49.510;6.026;2023-04-25T02:18:28;97350.94;;;5.35
79053;BMP280;68451;49.510;6.026;2023-04-25T02:20:53;97474.03;;;6.15
79053;BMP280;68451;49.510;6.026;2023-04-25T02:23:19;97495.13;;;6.25
79053;BMP280;68451;49.510;6.026;2023-04-25T02:25:45;97498.88;;;6.36
79053;BMP280;68451;49.510;6.026;2023-04-25T02:28:10;97466.88;;;6.11
79053;BMP280;68451;49.510;6.026;2023-04-25T02:30:38;97513.03;;;6.40
79053;BMP280;68451;49.510;6.026;2023-04-25T02:33:03;97447.94;;;6.04
79053;BMP280;68451;49.510;6.026;2023-04-25T02:35:29;97489.13;;;6.32
79053;BMP280;68451;49.510;6.026;2023-04-25T02:37:54;97460.06;;;6.16
79053;BMP280;68451;49.510;6.026;2023-04-25T02:40:20;97274.78;;;4.99
79053;BMP280;68451;49.510;6.026;2023-04-25T02:42:45;97343.13;;;5.42
79053;BMP280;68451;49.510;6.026;2023-04-25T02:45:11;97419.31;;;5.92
79053;BMP280;68451;49.510;6.026;2023-04-25T02:47:37;97451.72;;;6.14
79053;BMP280;68451;49.510;6.026;2023-04-25T02:50:03;97468.63;;;6.23
79053;BMP280;68451;49.510;6.026;2023-04-25T02:52:29;97426.47;;;5.97
79053;BMP280;68451;49.510;6.026;2023-04-25T02:54:54;97503.00;;;6.50
79053;BMP280;68451;49.510;6.026;2023-04-25T02:57:20;97458.63;;;6.27
79053;BMP280;68451;49.510;6.026;2023-04-25T02:59:45;97480.72;;;6.36
79053;BMP280;68451;49.510;6.026;2023-04-25T03:02:11;97401.00;;;5.87
79053;BMP280;68451;49.510;6.026;2023-04-25T03:04:36;97456.22;;;6.25
79053;BMP280;68451;49.510;6.026;2023-04-25T03:07:02;97475.91;;;6.40
79053;BMP280;68451;49.510;6.026;2023-04-25T03:09:27;97436.53;;;6.18
79053;BMP280;68451;49.510;6.026;2023-04-25T03:11:53;97465.00;;;6.31
79053;BMP280;68451;49.510;6.026;2023-04-25T03:14:18;97417.28;;;6.01
79053;BMP280;68451;49.510;6.026;2023-04-25T03:16:44;97496.59;;;6.53
79053;BMP280;68451;49.510;6.026;2023-04-25T03:19:10;97306.34;;;5.33
79053;BMP280;68451;49.510;6.026;2023-04-25T03:21:36;97270.00;;;5.09
79053;BMP280;68451;49.510;6.026;2023-04-25T03:24:03;97211.97;;;4.78
79053;BMP280;68451;49.510;6.026;2023-04-25T03:26:29;97474.72;;;6.42
79053;BMP280;68451;49.510;6.026;2023-04-25T03:28:55;97480.28;;;6.46
79053;BMP280;68451;49.510;6.026;2023-04-25T03:31:20;97447.88;;;6.23
79053;BMP280;68451;49.510;6.026;2023-04-25T03:33:46;97382.44;;;5.83
79053;BMP280;68451;49.510;6.026;2023-04-25T03:36:12;97438.94;;;6.19
79053;BMP280;68451;49.510;6.026;2023-04-25T03:38:38;97444.88;;;6.26
79053;BMP280;68451;49.510;6.026;2023-04-25T03:41:03;97197.28;;;4.72
79053;BMP280;68451;49.510;6.026;2023-04-25T03:43:29;97448.88;;;6.22
79053;BMP280;68451;49.510;6.026;2023-04-25T03:45:54;97418.09;;;6.01
79053;BMP280;68451;49.510;6.026;2023-04-25T03:48:20;97496.22;;;6.49
79053;BMP280;68451;49.510;6.026;2023-04-25T03:50:47;97390.84;;;5.79
79053;BMP280;68451;49.510;6.026;2023-04-25T03:53:13;97353.03;;;5.58
79053;BMP280;68451;49.510;6.026;2023-04-25T03:55:38;97467.44;;;6.19
79053;BMP280;68451;49.510;6.026;2023-04-25T03:58:04;97511.22;;;6.47
79053;BMP280;68451;49.510;6.026;2023-04-25T04:00:30;97419.50;;;5.77
79053;BMP280;68451;49.510;6.026;2023-04-25T04:02:55;97496.28;;;6.29
79053;BMP280;68451;49.510;6.026;2023-04-25T04:05:21;97449.38;;;6.00
79053;BMP280;68451;49.510;6.026;2023-04-25T04:07:47;97415.13;;;5.78
79053;BMP280;68451;49.510;6.026;2023-04-25T04:10:12;97452.94;;;5.99
79053;BMP280;68451;49.510;6.026;2023-04-25T04:12:38;97335.84;;;5.26
79053;BMP280;68451;49.510;6.026;2023-04-25T04:15:04;97498.13;;;6.22
79053;BMP280;68451;49.510;6.026;2023-04-25T04:17:31;97456.75;;;5.96
79053;BMP280;68451;49.510;6.026;2023-04-25T04:19:56;97477.44;;;6.09
79053;BMP280;68451;49.510;6.026;2023-04-25T04:22:22;97349.56;;;5.26
79053;BMP280;68451;49.510;6.026;2023-04-25T04:24:48;97329.69;;;5.07
79053;BMP280;68451;49.510;6.026;2023-04-25T04:27:17;97450.19;;;5.80
79053;BMP280;68451;49.510;6.026;2023-04-25T04:29:43;97517.88;;;6.23
79053;BMP280;68451;49.510;6.026;2023-04-25T04:32:08;97470.94;;;5.94
79053;BMP280;68451;49.510;6.026;2023-04-25T04:34:34;97401.28;;;5.46
79053;BMP280;68451;49.510;6.026;2023-04-25T04:37:00;97407.47;;;5.38
79053;BMP280;68451;49.510;6.026;2023-04-25T04:39:26;97400.13;;;5.35
79053;BMP280;68451;49.510;6.026;2023-04-25T04:41:51;97267.69;;;4.48
79053;BMP280;68451;49.510;6.026;2023-04-25T04:44:17;97249.00;;;4.39
79053;BMP280;68451;49.510;6.026;2023-04-25T04:46:43;97339.84;;;4.95
79053;BMP280;68451;49.510;6.026;2023-04-25T04:49:10;97411.66;;;5.39
79053;BMP280;68451;49.510;6.026;2023-04-25T04:51:36;97528.09;;;6.05
79053;BMP280;68451;49.510;6.026;2023-04-25T04:54:02;97362.72;;;5.05
79053;BMP280;68451;49.510;6.026;2023-04-25T04:56:29;97502.41;;;5.91
79053;BMP280;68451;49.510;6.026;2023-04-25T04:58:56;97432.13;;;5.54
79053;BMP280;68451;49.510;6.026;2023-04-25T05:01:22;97417.81;;;5.45
79053;BMP280;68451;49.510;6.026;2023-04-25T05:03:49;97521.09;;;6.12
79053;BMP280;68451;49.510;6.026;2023-04-25T05:06:17;97468.91;;;5.82
79053;BMP280;68451;49.510;6.026;2023-04-25T05:08:43;97526.25;;;6.19
79053;BMP280;68451;49.510;6.026;2023-04-25T05:11:08;97490.63;;;6.01
79053;BMP280;68451;49.510;6.026;2023-04-25T05:13:34;97372.66;;;5.21
79053;BMP280;68451;49.510;6.026;2023-04-25T05:15:59;97498.19;;;6.03
79053;BMP280;68451;49.510;6.026;2023-04-25T05:18:25;97549.94;;;6.36
79053;BMP280;68451;49.510;6.026;2023-04-25T05:20:51;97522.25;;;6.16
79053;BMP280;68451;49.510;6.026;2023-04-25T05:23:16;97553.75;;;6.33
79053;BMP280;68451;49.510;6.026;2023-04-25T05:25:42;97541.34;;;6.35
79053;BMP280;68451;49.510;6.026;2023-04-25T05:28:07;97433.28;;;5.78
79053;BMP280;68451;49.510;6.026;2023-04-25T05:30:34;97566.78;;;6.64
79053;BMP280;68451;49.510;6.026;2023-04-25T05:33:00;97563.72;;;6.74
79053;BMP280;68451;49.510;6.026;2023-04-25T05:35:27;97345.16;;;5.40
79053;BMP280;68451;49.510;6.026;2023-04-25T05:37:52;97508.38;;;6.49
79053;BMP280;68451;49.510;6.026;2023-04-25T05:40:18;97573.22;;;6.93
79053;BMP280;68451;49.510;6.026;2023-04-25T05:42:43;97536.19;;;6.80
79053;BMP280;68451;49.510;6.026;2023-04-25T05:45:09;97436.34;;;6.19
79053;BMP280;68451;49.510;6.026;2023-04-25T05:47:35;97536.69;;;6.95
79053;BMP280;68451;49.510;6.026;2023-04-25T05:50:00;97503.66;;;6.77
79053;BMP280;68451;49.510;6.026;2023-04-25T05:52:26;97581.41;;;7.28
79053;BMP280;68451;49.510;6.026;2023-04-25T05:54:52;97593.56;;;7.34
79053;BMP280;68451;49.510;6.026;2023-04-25T05:57:25;97541.63;;;7.09
79053;BMP280;68451;49.510;6.026;2023-04-25T05:59:51;97585.66;;;7.54
79053;BMP280;68451;49.510;6.026;2023-04-25T06:02:19;97537.41;;;7.40
79053;BMP280;68451;49.510;6.026;2023-04-25T06:04:45;97547.22;;;7.62
79053;BMP280;68451;49.510;6.026;2023-04-25T06:07:11;97506.75;;;7.91
79053;BMP280;68451;49.510;6.026;2023-04-25T06:26:16;97609.00;;;10.94
79053;BMP280;68451;49.510;6.026;2023-04-25T06:28:42;97614.66;;;10.62
79053;BMP280;68451;49.510;6.026;2023-04-25T06:31:07;97615.06;;;10.31
79053;BMP280;68451;49.510;6.026;2023-04-25T06:33:33;97584.72;;;9.83
79053;BMP280;68451;49.510;6.026;2023-04-25T06:35:59;97569.63;;;9.51
79053;BMP280;68451;49.510;6.026;2023-04-25T06:38:24;97490.28;;;8.70
79053;BMP280;68451;49.510;6.026;2023-04-25T06:40:50;97604.31;;;9.21
79053;BMP280;68451;49.510;6.026;2023-04-25T06:43:16;97552.78;;;8.64
79053;BMP280;68451;49.510;6.026;2023-04-25T06:45:42;97599.47;;;8.77
79053;BMP280;68451;49.510;6.026;2023-04-25T06:48:07;97627.00;;;8.84
79053;BMP280;68451;49.510;6.026;2023-04-25T06:50:33;97616.59;;;8.66
79053;BMP280;68451;49.510;6.026;2023-04-25T06:53:00;97566.44;;;8.23
79053;BMP280;68451;49.510;6.026;2023-04-25T06:55:27;97600.59;;;8.51
79053;BMP280;68451;49.510;6.026;2023-04-25T06:57:52;97625.66;;;8.64
79053;BMP280;68451;49.510;6.026;2023-04-25T07:00:18;97519.19;;;7.89
79053;BMP280;68451;49.510;6.026;2023-04-25T07:02:44;97620.44;;;8.64
79053;BMP280;68451;49.510;6.026;2023-04-25T07:05:10;97621.25;;;8.64
79053;BMP280;68451;49.510;6.026;2023-04-25T07:07:35;97635.84;;;8.65
79053;BMP280;68451;49.510;6.026;2023-04-25T07:10:00;97635.25;;;8.63
79053;BMP280;68451;49.510;6.026;2023-04-25T07:12:26;97589.88;;;8.41
79053;BMP280;68451;49.510;6.026;2023-04-25T07:14:52;97613.59;;;8.51
79053;BMP280;68451;49.510;6.026;2023-04-25T07:17:17;97508.47;;;7.79
79053;BMP280;68451;49.510;6.026;2023-04-25T07:19:43;97671.00;;;8.74
79053;BMP280;68451;49.510;6.026;2023-04-25T07:22:08;97485.06;;;7.61
79053;BMP280;68451;49.510;6.026;2023-04-25T07:24:34;97638.97;;;8.56
79053;BMP280;68451;49.510;6.026;2023-04-25T07:26:59;97607.44;;;8.45
79053;BMP280;68451;49.510;6.026;2023-04-25T07:29:26;97567.91;;;8.37
79053;BMP280;68451;49.510;6.026;2023-04-25T07:31:52;97578.03;;;8.45
79053;BMP280;68451;49.510;6.026;2023-04-25T07:34:18;97585.47;;;8.60
79053;BMP280;68451;49.510;6.026;2023-04-25T07:36:43;97499.56;;;8.12
79053;BMP280;68451;49.510;6.026;2023-04-25T07:39:09;97656.06;;;8.99
79053;BMP280;68451;49.510;6.026;2023-04-25T07:41:34;97633.25;;;8.83
79053;BMP280;68451;49.510;6.026;2023-04-25T07:44:00;97681.00;;;9.07
79053;BMP280;68451;49.510;6.026;2023-04-25T07:46:26;97620.09;;;8.60
79053;BMP280;68451;49.510;6.026;2023-04-25T07:48:51;97667.00;;;8.72
79053;BMP280;68451;49.510;6.026;2023-04-25T07:51:17;97673.72;;;8.61
79053;BMP280;68451;49.510;6.026;2023-04-25T07:53:45;97616.31;;;8.13
79053;BMP280;68451;49.510;6.026;2023-04-25T07:56:11;97563.06;;;7.79
79053;BMP280;68451;49.510;6.026;2023-04-25T07:58:36;97572.00;;;7.83
79053;BMP280;68451;49.510;6.026;2023-04-25T08:01:02;97560.13;;;7.69
79053;BMP280;68451;49.510;6.026;2023-04-25T08:03:27;97705.81;;;8.55
79053;BMP280;68451;49.510;6.026;2023-04-25T08:05:53;97546.16;;;7.45
79053;BMP280;68451;49.510;6.026;2023-04-25T08:08:18;97538.56;;;7.44
79053;BMP280;68451;49.510;6.026;2023-04-25T08:10:44;97723.41;;;8.53
79053;BMP280;68451;49.510;6.026;2023-04-25T08:13:09;97537.66;;;7.32
79053;BMP280;68451;49.510;6.026;2023-04-25T08:15:35;97658.56;;;8.08
79053;BMP280;68451;49.510;6.026;2023-04-25T08:18:00;97726.38;;;8.38
79053;BMP280;68451;49.510;6.026;2023-04-25T08:20:26;97660.16;;;7.85
79053;BMP280;68451;49.510;6.026;2023-04-25T08:22:52;97737.22;;;8.29
79053;BMP280;68451;49.510;6.026;2023-04-25T08:25:17;97605.19;;;7.32
79053;BMP280;68451;49.510;6.026;2023-04-25T08:27:43;97722.38;;;8.04
79053;BMP280;68451;49.510;6.026;2023-04-25T08:30:08;97741.28;;;8.18
79053;BMP280;68451;49.510;6.026;2023-04-25T08:32:34;97653.00;;;7.49
79053;BMP280;68451;49.510;6.026;2023-04-25T08:35:03;97658.47;;;7.41
79053;BMP280;68451;49.510;6.026;2023-04-25T08:37:28;97758.25;;;7.96
79053;BMP280;68451;49.510;6.026;2023-04-25T08:39:54;97750.34;;;7.84
79053;BMP280;68451;49.510;6.026;2023-04-25T08:42:21;97688.56;;;7.48
79053;BMP280;68451;49.510;6.026;2023-04-25T08:44:48;97748.66;;;7.96
79053;BMP280;68451;49.510;6.026;2023-04-25T08:47:13;97685.78;;;7.50
79053;BMP280;68451;49.510;6.026;2023-04-25T08:49:39;97779.56;;;8.11
79053;BMP280;68451;49.510;6.026;2023-04-25T08:52:09;97742.31;;;7.86
79053;BMP280;68451;49.510;6.026;2023-04-25T08:54:36;97778.22;;;8.02
79053;BMP280;68451;49.510;6.026;2023-04-25T08:57:02;97782.25;;;7.98
79053;BMP280;68451;49.510;6.026;2023-04-25T08:59:30;97766.38;;;7.75
79053;BMP280;68451;49.510;6.026;2023-04-25T09:01:57;97691.25;;;7.29
79053;BMP280;68451;49.510;6.026;2023-04-25T09:04:23;97758.66;;;7.61
79053;BMP280;68451;49.510;6.026;2023-04-25T09:06:49;97797.06;;;7.91
79053;BMP280;68451;49.510;6.026;2023-04-25T09:09:14;97820.81;;;8.01
79053;BMP280;68451;49.510;6.026;2023-04-25T09:11:41;97783.75;;;7.74
79053;BMP280;68451;49.510;6.026;2023-04-25T09:14:11;97699.66;;;7.24
79053;BMP280;68451;49.510;6.026;2023-04-25T09:19:28;97838.03;;;7.95
79053;BMP280;68451;49.510;6.026;2023-04-25T09:21:56;97752.78;;;7.35
79053;BMP280;68451;49.510;6.026;2023-04-25T09:24:38;97837.47;;;7.87
79053;BMP280;68451;49.510;6.026;2023-04-25T09:27:06;97802.81;;;7.61
79053;BMP280;68451;49.510;6.026;2023-04-25T09:29:33;97684.28;;;6.71
79053;BMP280;68451;49.510;6.026;2023-04-25T09:34:39;97554.59;;;5.94
79053;BMP280;68451;49.510;6.026;2023-04-25T09:37:06;97830.28;;;7.82
79053;BMP280;68451;49.510;6.026;2023-04-25T09:39:32;97787.22;;;7.61
79053;BMP280;68451;49.510;6.026;2023-04-25T09:41:59;97756.06;;;7.55
79053;BMP280;68451;49.510;6.026;2023-04-25T09:44:24;97801.25;;;7.98
79053;BMP280;68451;49.510;6.026;2023-04-25T09:46:50;97788.91;;;8.19
79053;BMP280;68451;49.510;6.026;2023-04-25T09:49:20;97823.63;;;8.62
79053;BMP280;68451;49.510;6.026;2023-04-25T09:51:56;97768.69;;;8.52
79053;BMP280;68451;49.510;6.026;2023-04-25T09:54:26;97838.34;;;8.99
79053;BMP280;68451;49.510;6.026;2023-04-25T09:56:53;97841.44;;;8.90
79053;BMP280;68451;49.510;6.026;2023-04-25T09:59:20;97645.59;;;7.52
79053;BMP280;68451;49.510;6.026;2023-04-25T10:01:48;97868.88;;;8.92
79053;BMP280;68451;49.510;6.026;2023-04-25T10:04:19;97856.97;;;8.78
79053;BMP280;68451;49.510;6.026;2023-04-25T10:06:45;97877.31;;;8.88
79053;BMP280;68451;49.510;6.026;2023-04-25T10:09:14;97817.25;;;8.58
79053;BMP280;68451;49.510;6.026;2023-04-25T10:11:41;97835.34;;;8.78
79053;BMP280;68451;49.510;6.026;2023-04-25T10:14:06;97820.75;;;8.95
79053;BMP280;68451;49.510;6.026;2023-04-25T10:16:33;97687.66;;;8.24
79053;BMP280;68451;49.510;6.026;2023-04-25T10:18:59;97825.16;;;9.19
79053;BMP280;68451;49.510;6.026;2023-04-25T10:21:27;97836.94;;;9.40
79053;BMP280;68451;49.510;6.026;2023-04-25T10:23:53;97834.44;;;10.00
79053;BMP280;68451;49.510;6.026;2023-04-25T10:26:20;97822.50;;;10.75
79053;BMP280;68451;49.510;6.026;2023-04-25T10:28:58;97667.69;;;10.51
79053;BMP280;68451;49.510;6.026;2023-04-25T10:31:26;97867.41;;;12.50
79053;BMP280;68451;49.510;6.026;2023-04-25T10:33:53;97865.81;;;12.49
79053;BMP280;68451;49.510;6.026;2023-04-25T10:36:22;97877.16;;;12.54
79053;BMP280;68451;49.510;6.026;2023-04-25T10:38:50;97837.22;;;12.14
79053;BMP280;68451;49.510;6.026;2023-04-25T10:41:18;97772.41;;;11.13
79053;BMP280;68451;49.510;6.026;2023-04-25T10:43:45;97823.09;;;11.23
79053;BMP280;68451;49.510;6.026;2023-04-25T10:46:14;97749.03;;;10.71
79053;BMP280;68451;49.510;6.026;2023-04-25T10:48:46;97779.03;;;10.57
79053;BMP280;68451;49.510;6.026;2023-04-25T10:51:17;97837.06;;;10.83
79053;BMP280;68451;49.510;6.026;2023-04-25T10:53:45;97895.91;;;11.32
79053;BMP280;68451;49.510;6.026;2023-04-25T10:56:25;97841.50;;;11.05
79053;BMP280;68451;49.510;6.026;2023-04-25T10:58:51;97856.81;;;11.25
79053;BMP280;68451;49.510;6.026;2023-04-25T11:01:21;97826.81;;;11.28
79053;BMP280;68451;49.510;6.026;2023-04-25T11:03:47;97838.13;;;11.68
79053;BMP280;68451;49.510;6.026;2023-04-25T11:06:26;97837.41;;;11.84
79053;BMP280;68451;49.510;6.026;2023-04-25T11:08:53;97799.56;;;11.87
79053;BMP280;68451;49.510;6.026;2023-04-25T11:11:19;97883.91;;;12.50
79053;BMP280;68451;49.510;6.026;2023-04-25T11:13:49;97888.41;;;12.67
79053;BMP280;68451;49.510;6.026;2023-04-25T11:16:16;97884.75;;;12.68
79053;BMP280;68451;49.510;6.026;2023-04-25T11:18:42;97850.81;;;12.44
79053;BMP280;68451;49.510;6.026;2023-04-25T11:21:09;97875.25;;;12.50
79053;BMP280;68451;49.510;6.026;2023-04-25T11:23:35;97906.53;;;12.28
79053;BMP280;68451;49.510;6.026;2023-04-25T11:26:00;97840.63;;;11.75
79053;BMP280;68451;49.510;6.026;2023-04-25T11:28:26;97883.91;;;11.94
79053;BMP280;68451;49.510;6.026;2023-04-25T11:30:52;97821.25;;;11.36
79053;BMP280;68451;49.510;6.026;2023-04-25T11:33:23;97771.75;;;10.83
79053;BMP280;68451;49.510;6.026;2023-04-25T11:35:49;97889.19;;;11.47
79053;BMP280;68451;49.510;6.026;2023-04-25T11:38:14;97870.47;;;11.15
79053;BMP280;68451;49.510;6.026;2023-04-25T11:40:40;97842.06;;;11.19
79053;BMP280;68451;49.510;6.026;2023-04-25T11:43:06;97859.88;;;11.45
79053;BMP280;68451;49.510;6.026;2023-04-25T11:45:32;97890.72;;;11.95
79053;BMP280;68451;49.510;6.026;2023-04-25T11:48:01;97893.34;;;12.23
79053;BMP280;68451;49.510;6.026;2023-04-25T11:50:28;97907.84;;;12.42
79053;BMP280;68451;49.510;6.026;2023-04-25T11:52:56;97741.50;;;11.33
79053;BMP280;68451;49.510;6.026;2023-04-25T11:55:22;97885.69;;;12.33
79053;BMP280;68451;49.510;6.026;2023-04-25T11:57:49;97867.75;;;12.25
79053;BMP280;68451;49.510;6.026;2023-04-25T12:00:17;97859.38;;;12.11
79053;BMP280;68451;49.510;6.026;2023-04-25T12:02:51;97884.75;;;12.11
79053;BMP280;68451;49.510;6.026;2023-04-25T12:05:20;97782.56;;;11.49
79053;BMP280;68451;49.510;6.026;2023-04-25T12:07:46;97858.13;;;11.74
79053;BMP280;68451;49.510;6.026;2023-04-25T12:10:14;97773.69;;;11.10
79053;BMP280;68451;49.510;6.026;2023-04-25T12:12:42;97939.28;;;12.14
79053;BMP280;68451;49.510;6.026;2023-04-25T12:15:15;97910.28;;;12.04
79053;BMP280;68451;49.510;6.026;2023-04-25T12:17:42;97936.56;;;12.37
79053;BMP280;68451;49.510;6.026;2023-04-25T12:20:09;97872.66;;;11.93
79053;BMP280;68451;49.510;6.026;2023-04-25T12:22:35;97920.84;;;12.09
79053;BMP280;68451;49.510;6.026;2023-04-25T12:25:02;97656.78;;;10.43
79053;BMP280;68451;49.510;6.026;2023-04-25T12:27:30;97905.66;;;11.83
79053;BMP280;68451;49.510;6.026;2023-04-25T12:29:57;97943.84;;;11.95
79053;BMP280;68451;49.510;6.026;2023-04-25T12:32:23;97913.72;;;11.58
79053;BMP280;68451;49.510;6.026;2023-04-25T12:34:48;97905.44;;;11.49
79053;BMP280;68451;49.510;6.026;2023-04-25T12:37:14;97930.22;;;11.58
79053;BMP280;68451;49.510;6.026;2023-04-25T12:39:40;97901.47;;;11.35
79053;BMP280;68451;49.510;6.026;2023-04-25T12:42:06;97805.13;;;10.81
79053;BMP280;68451;49.510;6.026;2023-04-25T12:44:33;97907.50;;;11.59
79053;BMP280;68451;49.510;6.026;2023-04-25T12:46:59;97884.53;;;11.49
79053;BMP280;68451;49.510;6.026;2023-04-25T12:49:25;97881.44;;;11.64
79053;BMP280;68451;49.510;6.026;2023-04-25T12:51:51;97874.41;;;11.64
79053;BMP280;68451;49.510;6.026;2023-04-25T12:54:17;97916.91;;;11.95
79053;BMP280;68451;49.510;6.026;2023-04-25T12:56:42;97757.13;;;10.93
79053;BMP280;68451;49.510;6.026;2023-04-25T12:59:08;97787.97;;;11.08
79053;BMP280;68451;49.510;6.026;2023-04-25T13:01:34;97937.81;;;11.72
79053;BMP280;68451;49.510;6.026;2023-04-25T13:04:02;97855.69;;;10.98
79053;BMP280;68451;49.510;6.026;2023-04-25T13:06:30;97904.31;;;11.10
79053;BMP280;68451;49.510;6.026;2023-04-25T13:08:56;97824.97;;;10.58
79053;BMP280;68451;49.510;6.026;2023-04-25T13:11:22;97900.44;;;11.01
79053;BMP280;68451;49.510;6.026;2023-04-25T13:13:47;97898.50;;;10.97
79053;BMP280;68451;49.510;6.026;2023-04-25T13:16:13;97882.84;;;10.97
79053;BMP280;68451;49.510;6.026;2023-04-25T13:18:42;97864.88;;;10.89
79053;BMP280;68451;49.510;6.026;2023-04-25T13:21:09;97922.59;;;11.22
79053;BMP280;68451;49.510;6.026;2023-04-25T13:23:36;97832.78;;;10.35
79053;BMP280;68451;49.510;6.026;2023-04-25T13:26:01;97759.13;;;9.73
79053;BMP280;68451;49.510;6.026;2023-04-25T13:28:28;97913.31;;;10.61
79053;BMP280;68451;49.510;6.026;2023-04-25T13:30:53;97958.19;;;10.82
79053;BMP280;68451;49.510;6.026;2023-04-25T13:33:19;97970.50;;;10.93
79053;BMP280;68451;49.510;6.026;2023-04-25T13:35:46;97922.75;;;10.74
79053;BMP280;68451;49.510;6.026;2023-04-25T13:38:14;97961.44;;;11.07
79053;BMP280;68451;49.510;6.026;2023-04-25T13:40:40;97956.56;;;11.10
79053;BMP280;68451;49.510;6.026;2023-04-25T13:43:05;97966.56;;;11.13
79053;BMP280;68451;49.510;6.026;2023-04-25T13:45:32;97962.13;;;11.14
79053;BMP280;68451;49.510;6.026;2023-04-25T13:47:57;97942.38;;;11.06
79053;BMP280;68451;49.510;6.026;2023-04-25T13:50:23;97767.06;;;9.97
79053;BMP280;68451;49.510;6.026;2023-04-25T13:52:48;97912.66;;;10.89
79053;BMP280;68451;49.510;6.026;2023-04-25T13:55:15;97984.88;;;11.37
79053;BMP280;68451;49.510;6.026;2023-04-25T13:57:40;97952.03;;;11.17
79053;BMP280;68451;49.510;6.026;2023-04-25T14:00:07;97953.19;;;11.45
79053;BMP280;68451;49.510;6.026;2023-04-25T14:02:35;97922.03;;;11.32
79053;BMP280;68451;49.510;6.026;2023-04-25T14:05:02;97807.06;;;10.62
79053;BMP280;68451;49.510;6.026;2023-04-25T14:07:28;97942.72;;;11.56
79053;BMP280;68451;49.510;6.026;2023-04-25T14:09:53;97950.56;;;11.80
79053;BMP280;68451;49.510;6.026;2023-04-25T14:12:19;97934.34;;;11.78
79053;BMP280;68451;49.510;6.026;2023-04-25T14:14:45;97969.31;;;12.11
79053;BMP280;68451;49.510;6.026;2023-04-25T14:17:11;97814.34;;;11.18
79053;BMP280;68451;49.510;6.026;2023-04-25T14:19:36;97954.44;;;12.00
79053;BMP280;68451;49.510;6.026;2023-04-25T14:22:03;97776.75;;;10.72
79053;BMP280;68451;49.510;6.026;2023-04-25T14:24:29;97952.75;;;11.83
79053;BMP280;68451;49.510;6.026;2023-04-25T14:26:55;97910.00;;;11.31
79053;BMP280;68451;49.510;6.026;2023-04-25T14:29:21;97913.97;;;11.21
79053;BMP280;68451;49.510;6.026;2023-04-25T14:31:47;97969.88;;;11.44
79053;BMP280;68451;49.510;6.026;2023-04-25T14:34:13;97970.34;;;11.41